Denver International, CO

10:39 PM MDT on August 27, 2014 (GMT -0600)
Buckley Air Force Base | Change Station
CLOSE
Current Station
Airport
Location: Aurora,
Elevation: 5663 ft
Nearby Weather Stations

Elev 5663 ft 39.71 °N, 104.76 °W | Updated 41 minutes ago

Scattered Clouds
Scattered Clouds
56 °F
Feels Like 56 °F
N
6
Wind Variable Wind from NE

Today
High -- | Low -- °F
--% Chance of Precip.
Yesterday
High -- | Low -- °F
Precip. -- in
6:21 AM 7:37 PM
Waxing Crescent, 6% visible
Pressure 30.02 in
Visibility 10.0 miles
Clouds Few 6000 ft
Few 15000 ft
Scattered Clouds 22000 ft
Dew Point 52 °F
Humidity 86%
Rainfall 0.05 in
Snow Depth Not available.
UV 0 out of 12
Pollen 8.10 out of 12
Ozone Good
PM2.5 Good
Flu Activity Not available.
METAR KBKF 280358Z 05005KT 10SM FEW060 FEW150 SCT220 14/11 A3018 RMK AO2A LTG DSNT SE RAE0307 TSE0307 SLP164 T01360113

More Conditions Fewer Conditions

Pressure 30.02 in
Visibility 10.0 miles
Clouds Few 6000 ft
Few 15000 ft
Scattered Clouds 22000 ft
Dew Point 52 °F
Humidity 86%
Rainfall 0.05 in
Snow Depth Not available.
UV 0 out of 12
Pollen 8.10 out of 12
Ozone Good
PM2.5 Good
Flu Activity Not available.
METAR KBKF 280358Z 05005KT 10SM FEW060 FEW150 SCT220 14/11 A3018 RMK AO2A LTG DSNT SE RAE0307 TSE0307 SLP164 T01360113

More Conditions Fewer Conditions

10-Day Weather Forecast

Almanac

Astronomy

Aug. 27, 2014 Rise Set
Actual Time 6:21 AM MDT 7:37 PM MDT
Civil Twilight 5:53 AM MDT 8:05 PM MDT
Nautical Twilight 5:20 AM MDT 8:39 PM MDT
Astronomical Twilight 4:45 AM MDT 9:14 PM MDT
Moon 8:20 AM MDT (8/27) 8:31 PM MDT (8/27)
Length of Visible Light 14h 11m
Length of Day
13h 15m
Tomorrow will be 2m 27s shorter.
Waxing Crescent, 6% of the Moon is Illuminated
Aug 28
Waxing Crescent
Sep 2
First Quarter
Sep 8
Full
Sep 15
Last Quarter
Sep 24
New

Today's Extremes

State Highs State Lows

Community

WunderPhotos

Upload Photos

1,747,907 photos uploaded!

Nearby

Air Quality

  Air Quality AQ Index Pollutant
Yesterday Good
OZONE
Yesterday Good
PM10
Current Good
OZONE
Current Good
PM2.5
Wednesday Moderate
OZONE
Wednesday Good
PM2.5
Thursday Good
OZONE
Thursday Good
PM2.5

Snow Depth

Station Depth Elevation
Niwot 1 in 9910 ft
University Camp 1 in 10300 ft
Echo Lake 0 in 10600 ft
Copeland Lake 0 in 8600 ft
Wild Basin 0 in 9560 ft

Earthquake Activity

City Distance Mag. Time & Date
No recent earthquake activity has been reported nearby.
Minimum magnitude displayed is 2.5.

Coastal Water Temperatures

Place Temperature
No Stations Reporting

Nearby Weather Stations